sensor_id;sensor_type;location;lat;lon;timestamp;temperature;humidity
8856;DHT22;4464;50.882;4.730;2022-07-30T00:00:49;17.60;99.90
8856;DHT22;4464;50.882;4.730;2022-07-30T00:03:15;17.60;99.90
8856;DHT22;4464;50.882;4.730;2022-07-30T00:05:40;17.50;99.90
8856;DHT22;4464;50.882;4.730;2022-07-30T00:08:06;17.40;99.90
8856;DHT22;4464;50.882;4.730;2022-07-30T00:10:32;17.40;99.90
8856;DHT22;4464;50.882;4.730;2022-07-30T00:12:58;17.40;99.90
8856;DHT22;4464;50.882;4.730;2022-07-30T00:15:24;17.40;99.90
8856;DHT22;4464;50.882;4.730;2022-07-30T00:17:56;17.30;99.90
8856;DHT22;4464;50.882;4.730;2022-07-30T00:20:23;17.30;99.90
8856;DHT22;4464;50.882;4.730;2022-07-30T00:22:50;17.30;99.90
8856;DHT22;4464;50.882;4.730;2022-07-30T00:25:17;17.30;99.90
8856;DHT22;4464;50.882;4.730;2022-07-30T00:27:43;17.30;99.90
8856;DHT22;4464;50.882;4.730;2022-07-30T00:30:10;17.30;99.90
8856;DHT22;4464;50.882;4.730;2022-07-30T00:32:39;17.30;99.90
8856;DHT22;4464;50.882;4.730;2022-07-30T00:35:06;17.30;99.90
8856;DHT22;4464;50.882;4.730;2022-07-30T00:37:34;17.30;99.90
8856;DHT22;4464;50.882;4.730;2022-07-30T00:40:03;17.20;99.90
8856;DHT22;4464;50.882;4.730;2022-07-30T00:42:44;17.20;99.90
8856;DHT22;4464;50.882;4.730;2022-07-30T00:45:14;17.20;99.90
8856;DHT22;4464;50.882;4.730;2022-07-30T00:47:41;17.20;99.90
8856;DHT22;4464;50.882;4.730;2022-07-30T00:50:09;17.20;99.90
8856;DHT22;4464;50.882;4.730;2022-07-30T00:52:36;17.10;99.90
8856;DHT22;4464;50.882;4.730;2022-07-30T00:55:03;17.10;99.90
8856;DHT22;4464;50.882;4.730;2022-07-30T00:57:29;17.00;99.90
8856;DHT22;4464;50.882;4.730;2022-07-30T00:59:57;17.00;99.90
8856;DHT22;4464;50.882;4.730;2022-07-30T01:02:24;17.00;99.90
8856;DHT22;4464;50.882;4.730;2022-07-30T01:04:49;17.00;99.90
8856;DHT22;4464;50.882;4.730;2022-07-30T01:07:15;17.00;99.90
8856;DHT22;4464;50.882;4.730;2022-07-30T01:09:41;17.00;99.90
8856;DHT22;4464;50.882;4.730;2022-07-30T01:12:09;16.90;99.90
8856;DHT22;4464;50.882;4.730;2022-07-30T01:14:38;17.00;99.90
8856;DHT22;4464;50.882;4.730;2022-07-30T01:17:04;17.00;99.90
8856;DHT22;4464;50.882;4.730;2022-07-30T01:19:36;17.00;99.90
8856;DHT22;4464;50.882;4.730;2022-07-30T01:28:22;17.10;99.90
8856;DHT22;4464;50.882;4.730;2022-07-30T01:30:49;17.10;99.90
8856;DHT22;4464;50.882;4.730;2022-07-30T01:33:16;17.10;99.90
8856;DHT22;4464;50.882;4.730;2022-07-30T01:35:46;17.00;99.90
8856;DHT22;4464;50.882;4.730;2022-07-30T01:38:14;16.90;99.90
8856;DHT22;4464;50.882;4.730;2022-07-30T01:40:43;16.80;99.90
8856;DHT22;4464;50.882;4.730;2022-07-30T01:43:10;16.80;99.90
8856;DHT22;4464;50.882;4.730;2022-07-30T01:45:37;16.80;99.90
8856;DHT22;4464;50.882;4.730;2022-07-30T01:48:05;16.70;99.90
8856;DHT22;4464;50.882;4.730;2022-07-30T01:50:33;16.70;99.90
8856;DHT22;4464;50.882;4.730;2022-07-30T01:53:00;16.60;99.90
8856;DHT22;4464;50.882;4.730;2022-07-30T01:55:33;16.60;99.90
8856;DHT22;4464;50.882;4.730;2022-07-30T01:58:00;16.60;99.90
8856;DHT22;4464;50.882;4.730;2022-07-30T02:00:28;16.50;99.90
8856;DHT22;4464;50.882;4.730;2022-07-30T02:02:56;16.50;99.90
8856;DHT22;4464;50.882;4.730;2022-07-30T02:05:22;16.40;99.90
8856;DHT22;4464;50.882;4.730;2022-07-30T02:11:00;16.40;99.90
8856;DHT22;4464;50.882;4.730;2022-07-30T02:13:27;16.40;99.90
8856;DHT22;4464;50.882;4.730;2022-07-30T02:16:14;16.30;99.90
8856;DHT22;4464;50.882;4.730;2022-07-30T02:19:02;16.30;99.90
8856;DHT22;4464;50.882;4.730;2022-07-30T02:21:40;16.30;99.90
8856;DHT22;4464;50.882;4.730;2022-07-30T02:24:12;16.20;99.90
8856;DHT22;4464;50.882;4.730;2022-07-30T02:26:40;16.20;99.90
8856;DHT22;4464;50.882;4.730;2022-07-30T02:29:08;16.20;99.90
8856;DHT22;4464;50.882;4.730;2022-07-30T02:31:36;16.20;99.90
8856;DHT22;4464;50.882;4.730;2022-07-30T02:34:04;16.20;99.90
8856;DHT22;4464;50.882;4.730;2022-07-30T02:36:34;16.20;99.90
8856;DHT22;4464;50.882;4.730;2022-07-30T02:39:06;16.10;99.90
8856;DHT22;4464;50.882;4.730;2022-07-30T02:41:34;16.10;99.90
8856;DHT22;4464;50.882;4.730;2022-07-30T02:44:01;16.20;99.90
8856;DHT22;4464;50.882;4.730;2022-07-30T02:46:27;16.20;99.90
8856;DHT22;4464;50.882;4.730;2022-07-30T02:48:55;16.10;99.90
8856;DHT22;4464;50.882;4.730;2022-07-30T02:51:24;16.10;99.90
8856;DHT22;4464;50.882;4.730;2022-07-30T02:53:52;16.10;99.90
8856;DHT22;4464;50.882;4.730;2022-07-30T02:56:21;16.10;99.90
8856;DHT22;4464;50.882;4.730;2022-07-30T02:58:48;16.00;99.90
8856;DHT22;4464;50.882;4.730;2022-07-30T03:01:15;16.00;99.90
8856;DHT22;4464;50.882;4.730;2022-07-30T03:03:45;16.00;99.90
8856;DHT22;4464;50.882;4.730;2022-07-30T03:06:13;15.90;99.90
8856;DHT22;4464;50.882;4.730;2022-07-30T03:08:40;16.00;99.90
8856;DHT22;4464;50.882;4.730;2022-07-30T03:11:12;16.00;99.90
8856;DHT22;4464;50.882;4.730;2022-07-30T03:13:38;16.10;99.90
8856;DHT22;4464;50.882;4.730;2022-07-30T03:16:08;16.00;99.90
8856;DHT22;4464;50.882;4.730;2022-07-30T03:18:37;16.00;99.90
8856;DHT22;4464;50.882;4.730;2022-07-30T03:21:09;16.00;99.90
8856;DHT22;4464;50.882;4.730;2022-07-30T03:23:39;16.00;99.90
8856;DHT22;4464;50.882;4.730;2022-07-30T03:26:07;15.90;99.90
8856;DHT22;4464;50.882;4.730;2022-07-30T03:28:37;15.90;99.90
8856;DHT22;4464;50.882;4.730;2022-07-30T03:31:04;15.80;99.90
8856;DHT22;4464;50.882;4.730;2022-07-30T03:33:35;15.80;99.90
8856;DHT22;4464;50.882;4.730;2022-07-30T03:36:02;15.80;99.90
8856;DHT22;4464;50.882;4.730;2022-07-30T03:38:34;15.80;99.90
8856;DHT22;4464;50.882;4.730;2022-07-30T03:41:04;15.80;99.90
8856;DHT22;4464;50.882;4.730;2022-07-30T03:43:31;15.80;99.90
8856;DHT22;4464;50.882;4.730;2022-07-30T03:46:06;15.90;99.90
8856;DHT22;4464;50.882;4.730;2022-07-30T03:48:34;15.90;99.90
8856;DHT22;4464;50.882;4.730;2022-07-30T03:51:02;15.90;99.90
8856;DHT22;4464;50.882;4.730;2022-07-30T03:53:28;15.90;99.90
8856;DHT22;4464;50.882;4.730;2022-07-30T03:55:54;15.90;99.90
8856;DHT22;4464;50.882;4.730;2022-07-30T03:58:21;15.80;99.90
8856;DHT22;4464;50.882;4.730;2022-07-30T04:00:48;15.90;99.90
8856;DHT22;4464;50.882;4.730;2022-07-30T04:03:27;15.90;99.90
8856;DHT22;4464;50.882;4.730;2022-07-30T04:05:56;15.90;99.90
8856;DHT22;4464;50.882;4.730;2022-07-30T04:08:21;15.80;99.90
8856;DHT22;4464;50.882;4.730;2022-07-30T04:10:52;15.70;99.90
8856;DHT22;4464;50.882;4.730;2022-07-30T04:13:18;15.70;99.90
8856;DHT22;4464;50.882;4.730;2022-07-30T04:18:21;15.80;99.90
8856;DHT22;4464;50.882;4.730;2022-07-30T04:20:50;15.70;99.90
8856;DHT22;4464;50.882;4.730;2022-07-30T04:23:16;15.80;99.90
8856;DHT22;4464;50.882;4.730;2022-07-30T04:25:44;15.80;99.90
8856;DHT22;4464;50.882;4.730;2022-07-30T04:28:12;15.80;99.90
8856;DHT22;4464;50.882;4.730;2022-07-30T04:30:40;15.80;99.90
8856;DHT22;4464;50.882;4.730;2022-07-30T04:33:06;15.80;99.90
8856;DHT22;4464;50.882;4.730;2022-07-30T04:35:33;15.70;99.90
8856;DHT22;4464;50.882;4.730;2022-07-30T04:38:04;15.80;99.90
8856;DHT22;4464;50.882;4.730;2022-07-30T04:40:30;15.80;99.90
8856;DHT22;4464;50.882;4.730;2022-07-30T04:42:57;15.80;99.90
8856;DHT22;4464;50.882;4.730;2022-07-30T04:45:23;15.80;99.90
8856;DHT22;4464;50.882;4.730;2022-07-30T04:47:54;15.90;99.90
8856;DHT22;4464;50.882;4.730;2022-07-30T04:50:24;16.00;99.90
8856;DHT22;4464;50.882;4.730;2022-07-30T04:52:53;16.00;99.90
8856;DHT22;4464;50.882;4.730;2022-07-30T04:55:24;16.10;99.90
8856;DHT22;4464;50.882;4.730;2022-07-30T04:57:51;16.20;99.90
8856;DHT22;4464;50.882;4.730;2022-07-30T05:00:20;16.30;99.90
8856;DHT22;4464;50.882;4.730;2022-07-30T05:02:48;16.40;99.90
8856;DHT22;4464;50.882;4.730;2022-07-30T05:05:15;16.50;99.90
8856;DHT22;4464;50.882;4.730;2022-07-30T05:07:42;16.50;99.90
8856;DHT22;4464;50.882;4.730;2022-07-30T05:10:12;16.60;99.90
8856;DHT22;4464;50.882;4.730;2022-07-30T05:12:40;16.60;99.90
8856;DHT22;4464;50.882;4.730;2022-07-30T05:15:10;16.80;99.90
8856;DHT22;4464;50.882;4.730;2022-07-30T05:17:36;16.80;99.90
8856;DHT22;4464;50.882;4.730;2022-07-30T05:20:03;16.90;99.90
8856;DHT22;4464;50.882;4.730;2022-07-30T05:22:34;17.00;99.90
8856;DHT22;4464;50.882;4.730;2022-07-30T05:25:00;17.00;99.90
8856;DHT22;4464;50.882;4.730;2022-07-30T05:27:26;17.10;99.90
8856;DHT22;4464;50.882;4.730;2022-07-30T05:29:52;17.10;99.90
8856;DHT22;4464;50.882;4.730;2022-07-30T05:32:18;17.10;99.90
8856;DHT22;4464;50.882;4.730;2022-07-30T05:34:46;17.10;99.90
8856;DHT22;4464;50.882;4.730;2022-07-30T05:37:12;16.90;99.90
8856;DHT22;4464;50.882;4.730;2022-07-30T05:39:38;16.90;99.90
8856;DHT22;4464;50.882;4.730;2022-07-30T05:42:06;16.80;99.90
8856;DHT22;4464;50.882;4.730;2022-07-30T05:44:32;16.90;99.90
8856;DHT22;4464;50.882;4.730;2022-07-30T05:47:00;17.00;99.90
8856;DHT22;4464;50.882;4.730;2022-07-30T05:49:26;17.10;99.90
8856;DHT22;4464;50.882;4.730;2022-07-30T05:51:52;17.30;99.90
8856;DHT22;4464;50.882;4.730;2022-07-30T05:54:20;17.50;99.90
8856;DHT22;4464;50.882;4.730;2022-07-30T05:56:46;17.60;99.90
8856;DHT22;4464;50.882;4.730;2022-07-30T05:59:11;17.70;99.90
8856;DHT22;4464;50.882;4.730;2022-07-30T06:01:40;17.90;99.90
8856;DHT22;4464;50.882;4.730;2022-07-30T06:04:10;18.00;99.90
8856;DHT22;4464;50.882;4.730;2022-07-30T06:06:36;18.00;99.90
8856;DHT22;4464;50.882;4.730;2022-07-30T06:09:02;18.10;99.90
8856;DHT22;4464;50.882;4.730;2022-07-30T06:11:28;18.10;99.90
8856;DHT22;4464;50.882;4.730;2022-07-30T06:13:54;18.10;99.90
8856;DHT22;4464;50.882;4.730;2022-07-30T06:16:23;18.20;99.90
8856;DHT22;4464;50.882;4.730;2022-07-30T06:18:48;18.10;99.90
8856;DHT22;4464;50.882;4.730;2022-07-30T06:21:16;18.10;99.90
8856;DHT22;4464;50.882;4.730;2022-07-30T06:23:43;18.00;99.90
8856;DHT22;4464;50.882;4.730;2022-07-30T06:26:09;17.70;99.90
8856;DHT22;4464;50.882;4.730;2022-07-30T06:28:37;17.70;99.90
8856;DHT22;4464;50.882;4.730;2022-07-30T06:31:06;17.80;99.90
8856;DHT22;4464;50.882;4.730;2022-07-30T06:33:32;18.00;99.90
8856;DHT22;4464;50.882;4.730;2022-07-30T06:36:01;18.20;99.90
8856;DHT22;4464;50.882;4.730;2022-07-30T06:38:27;18.30;99.90
8856;DHT22;4464;50.882;4.730;2022-07-30T06:40:53;18.40;99.90
8856;DHT22;4464;50.882;4.730;2022-07-30T06:43:21;18.30;99.90
8856;DHT22;4464;50.882;4.730;2022-07-30T06:45:49;18.40;99.90
8856;DHT22;4464;50.882;4.730;2022-07-30T06:48:14;18.50;99.90
8856;DHT22;4464;50.882;4.730;2022-07-30T06:50:40;18.20;99.90
8856;DHT22;4464;50.882;4.730;2022-07-30T06:53:06;18.10;99.90
8856;DHT22;4464;50.882;4.730;2022-07-30T06:55:32;18.20;99.90
8856;DHT22;4464;50.882;4.730;2022-07-30T06:57:58;18.30;99.90
8856;DHT22;4464;50.882;4.730;2022-07-30T07:00:24;18.30;99.90
8856;DHT22;4464;50.882;4.730;2022-07-30T07:02:50;18.50;99.90
8856;DHT22;4464;50.882;4.730;2022-07-30T07:05:16;18.70;99.90
8856;DHT22;4464;50.882;4.730;2022-07-30T07:07:42;18.70;99.90
8856;DHT22;4464;50.882;4.730;2022-07-30T07:10:08;18.70;99.90
8856;DHT22;4464;50.882;4.730;2022-07-30T07:12:34;18.70;99.90
8856;DHT22;4464;50.882;4.730;2022-07-30T07:15:00;18.70;99.90
8856;DHT22;4464;50.882;4.730;2022-07-30T07:17:26;18.80;99.90
8856;DHT22;4464;50.882;4.730;2022-07-30T07:19:53;19.00;99.90
8856;DHT22;4464;50.882;4.730;2022-07-30T07:22:19;19.20;99.90
8856;DHT22;4464;50.882;4.730;2022-07-30T07:24:47;19.50;99.90
8856;DHT22;4464;50.882;4.730;2022-07-30T07:27:13;19.60;99.90
8856;DHT22;4464;50.882;4.730;2022-07-30T07:29:40;19.70;99.90
8856;DHT22;4464;50.882;4.730;2022-07-30T07:32:09;19.70;99.90
8856;DHT22;4464;50.882;4.730;2022-07-30T07:34:35;19.70;99.90
8856;DHT22;4464;50.882;4.730;2022-07-30T07:37:03;19.70;99.90
8856;DHT22;4464;50.882;4.730;2022-07-30T07:39:33;19.60;99.90
8856;DHT22;4464;50.882;4.730;2022-07-30T07:41:59;19.40;99.90
8856;DHT22;4464;50.882;4.730;2022-07-30T07:44:25;19.50;99.90
8856;DHT22;4464;50.882;4.730;2022-07-30T07:46:53;19.70;99.90
8856;DHT22;4464;50.882;4.730;2022-07-30T07:49:19;19.70;99.90
8856;DHT22;4464;50.882;4.730;2022-07-30T07:51:45;19.70;99.90
8856;DHT22;4464;50.882;4.730;2022-07-30T07:54:11;19.90;99.90
8856;DHT22;4464;50.882;4.730;2022-07-30T07:56:37;19.80;99.90
8856;DHT22;4464;50.882;4.730;2022-07-30T07:59:03;19.90;99.90
8856;DHT22;4464;50.882;4.730;2022-07-30T08:01:29;20.00;99.90
8856;DHT22;4464;50.882;4.730;2022-07-30T08:03:55;19.80;99.90
8856;DHT22;4464;50.882;4.730;2022-07-30T08:06:25;19.80;99.90
8856;DHT22;4464;50.882;4.730;2022-07-30T08:08:51;20.00;99.90
8856;DHT22;4464;50.882;4.730;2022-07-30T08:11:20;20.20;99.90
8856;DHT22;4464;50.882;4.730;2022-07-30T08:13:46;20.20;99.90
8856;DHT22;4464;50.882;4.730;2022-07-30T08:16:12;20.40;99.90
8856;DHT22;4464;50.882;4.730;2022-07-30T08:18:39;20.60;99.90
8856;DHT22;4464;50.882;4.730;2022-07-30T08:21:05;20.70;99.90
8856;DHT22;4464;50.882;4.730;2022-07-30T08:23:33;21.00;99.90
8856;DHT22;4464;50.882;4.730;2022-07-30T08:26:04;21.20;99.90
8856;DHT22;4464;50.882;4.730;2022-07-30T08:28:30;21.40;99.90
8856;DHT22;4464;50.882;4.730;2022-07-30T08:30:56;21.30;99.90
8856;DHT22;4464;50.882;4.730;2022-07-30T08:33:27;21.30;99.90
8856;DHT22;4464;50.882;4.730;2022-07-30T08:35:55;21.40;99.90
8856;DHT22;4464;50.882;4.730;2022-07-30T08:38:22;21.50;99.90
8856;DHT22;4464;50.882;4.730;2022-07-30T08:40:54;21.50;99.90
8856;DHT22;4464;50.882;4.730;2022-07-30T08:43:24;21.70;99.90
8856;DHT22;4464;50.882;4.730;2022-07-30T08:45:52;21.80;99.90
8856;DHT22;4464;50.882;4.730;2022-07-30T08:48:20;22.00;99.90
8856;DHT22;4464;50.882;4.730;2022-07-30T08:50:49;22.10;99.90
8856;DHT22;4464;50.882;4.730;2022-07-30T08:53:16;22.30;99.90
8856;DHT22;4464;50.882;4.730;2022-07-30T08:55:44;22.50;99.90
8856;DHT22;4464;50.882;4.730;2022-07-30T08:58:28;22.80;99.90
8856;DHT22;4464;50.882;4.730;2022-07-30T09:00:55;22.60;99.90
8856;DHT22;4464;50.882;4.730;2022-07-30T09:03:20;22.40;99.90
8856;DHT22;4464;50.882;4.730;2022-07-30T09:05:49;22.40;99.90
8856;DHT22;4464;50.882;4.730;2022-07-30T09:08:15;22.80;99.90
8856;DHT22;4464;50.882;4.730;2022-07-30T09:10:40;23.00;99.90
8856;DHT22;4464;50.882;4.730;2022-07-30T09:13:32;23.10;99.90
8856;DHT22;4464;50.882;4.730;2022-07-30T09:16:05;24.10;99.90
8856;DHT22;4464;50.882;4.730;2022-07-30T09:18:37;25.00;99.90
8856;DHT22;4464;50.882;4.730;2022-07-30T09:21:24;25.40;99.90
8856;DHT22;4464;50.882;4.730;2022-07-30T09:26:31;27.40;96.80
8856;DHT22;4464;50.882;4.730;2022-07-30T09:29:16;28.80;93.50
8856;DHT22;4464;50.882;4.730;2022-07-30T09:32:06;30.00;92.00
8856;DHT22;4464;50.882;4.730;2022-07-30T09:34:33;31.20;88.80
8856;DHT22;4464;50.882;4.730;2022-07-30T09:37:18;32.30;87.00
8856;DHT22;4464;50.882;4.730;2022-07-30T09:39:46;32.40;83.30
8856;DHT22;4464;50.882;4.730;2022-07-30T09:42:24;33.10;82.00
8856;DHT22;4464;50.882;4.730;2022-07-30T09:44:51;33.90;79.20
8856;DHT22;4464;50.882;4.730;2022-07-30T09:47:41;34.10;78.30
8856;DHT22;4464;50.882;4.730;2022-07-30T09:50:14;33.50;77.70
8856;DHT22;4464;50.882;4.730;2022-07-30T09:52:42;33.50;78.20
8856;DHT22;4464;50.882;4.730;2022-07-30T09:55:12;33.20;76.30
8856;DHT22;4464;50.882;4.730;2022-07-30T09:58:00;33.70;75.10
8856;DHT22;4464;50.882;4.730;2022-07-30T10:00:31;31.90;77.10
8856;DHT22;4464;50.882;4.730;2022-07-30T10:03:00;31.30;79.30
8856;DHT22;4464;50.882;4.730;2022-07-30T10:05:27;30.50;81.00
8856;DHT22;4464;50.882;4.730;2022-07-30T10:07:58;29.50;82.60
8856;DHT22;4464;50.882;4.730;2022-07-30T10:10:29;29.20;84.10
8856;DHT22;4464;50.882;4.730;2022-07-30T10:13:01;29.90;82.60
8856;DHT22;4464;50.882;4.730;2022-07-30T10:15:33;30.90;81.70
8856;DHT22;4464;50.882;4.730;2022-07-30T10:18:03;32.60;77.60
8856;DHT22;4464;50.882;4.730;2022-07-30T10:20:29;32.40;77.40
8856;DHT22;4464;50.882;4.730;2022-07-30T10:22:55;34.00;75.20
8856;DHT22;4464;50.882;4.730;2022-07-30T10:25:23;34.50;73.50
8856;DHT22;4464;50.882;4.730;2022-07-30T10:27:52;34.40;71.90
8856;DHT22;4464;50.882;4.730;2022-07-30T10:30:18;33.30;72.20
8856;DHT22;4464;50.882;4.730;2022-07-30T10:32:45;30.60;77.00
8856;DHT22;4464;50.882;4.730;2022-07-30T10:35:14;29.50;78.90
8856;DHT22;4464;50.882;4.730;2022-07-30T10:37:45;30.00;79.50
8856;DHT22;4464;50.882;4.730;2022-07-30T10:40:37;31.20;76.80
8856;DHT22;4464;50.882;4.730;2022-07-30T10:43:15;32.40;75.90
8856;DHT22;4464;50.882;4.730;2022-07-30T10:46:24;31.90;75.50
8856;DHT22;4464;50.882;4.730;2022-07-30T10:48:51;30.20;78.50
8856;DHT22;4464;50.882;4.730;2022-07-30T10:51:21;29.70;80.40
8856;DHT22;4464;50.882;4.730;2022-07-30T10:53:50;28.60;80.30
8856;DHT22;4464;50.882;4.730;2022-07-30T10:56:23;28.60;81.30
8856;DHT22;4464;50.882;4.730;2022-07-30T10:59:09;27.80;82.90
8856;DHT22;4464;50.882;4.730;2022-07-30T11:04:21;29.40;80.80
8856;DHT22;4464;50.882;4.730;2022-07-30T11:06:48;30.70;78.60
8856;DHT22;4464;50.882;4.730;2022-07-30T11:09:36;31.40;77.70
8856;DHT22;4464;50.882;4.730;2022-07-30T11:12:04;32.20;74.60
8856;DHT22;4464;50.882;4.730;2022-07-30T11:17:18;33.20;72.50
8856;DHT22;4464;50.882;4.730;2022-07-30T11:22:35;33.00;74.10
8856;DHT22;4464;50.882;4.730;2022-07-30T11:25:12;33.70;71.40
8856;DHT22;4464;50.882;4.730;2022-07-30T11:27:56;33.40;71.30
8856;DHT22;4464;50.882;4.730;2022-07-30T11:35:29;33.90;69.50
8856;DHT22;4464;50.882;4.730;2022-07-30T11:40:35;31.70;72.50
8856;DHT22;4464;50.882;4.730;2022-07-30T11:43:18;31.90;72.60
8856;DHT22;4464;50.882;4.730;2022-07-30T11:45:45;31.80;71.70
8856;DHT22;4464;50.882;4.730;2022-07-30T11:48:14;32.80;69.90
8856;DHT22;4464;50.882;4.730;2022-07-30T11:50:41;33.50;68.50
8856;DHT22;4464;50.882;4.730;2022-07-30T11:53:19;33.70;68.10
8856;DHT22;4464;50.882;4.730;2022-07-30T11:55:53;33.60;67.60
8856;DHT22;4464;50.882;4.730;2022-07-30T11:58:34;33.40;67.30
8856;DHT22;4464;50.882;4.730;2022-07-30T12:01:17;32.90;67.20
8856;DHT22;4464;50.882;4.730;2022-07-30T12:03:44;32.50;69.10
8856;DHT22;4464;50.882;4.730;2022-07-30T12:06:16;32.60;68.20
8856;DHT22;4464;50.882;4.730;2022-07-30T12:08:45;32.50;69.20
8856;DHT22;4464;50.882;4.730;2022-07-30T12:11:11;32.20;69.30
8856;DHT22;4464;50.882;4.730;2022-07-30T12:13:39;32.40;70.00
8856;DHT22;4464;50.882;4.730;2022-07-30T12:16:09;32.50;69.20
8856;DHT22;4464;50.882;4.730;2022-07-30T12:18:40;32.70;68.70
8856;DHT22;4464;50.882;4.730;2022-07-30T12:21:08;33.70;67.70
8856;DHT22;4464;50.882;4.730;2022-07-30T12:23:40;35.20;65.90
8856;DHT22;4464;50.882;4.730;2022-07-30T12:26:08;36.30;64.30
8856;DHT22;4464;50.882;4.730;2022-07-30T12:28:46;37.30;62.20
8856;DHT22;4464;50.882;4.730;2022-07-30T12:31:15;37.70;61.00
8856;DHT22;4464;50.882;4.730;2022-07-30T12:33:41;38.40;59.40
8856;DHT22;4464;50.882;4.730;2022-07-30T12:36:27;38.10;58.60
8856;DHT22;4464;50.882;4.730;2022-07-30T12:38:53;36.80;59.60
8856;DHT22;4464;50.882;4.730;2022-07-30T12:41:21;36.30;60.10
8856;DHT22;4464;50.882;4.730;2022-07-30T12:43:54;36.40;60.40
8856;DHT22;4464;50.882;4.730;2022-07-30T12:46:26;35.80;59.90
8856;DHT22;4464;50.882;4.730;2022-07-30T12:51:24;36.40;60.70
8856;DHT22;4464;50.882;4.730;2022-07-30T12:53:53;36.90;59.10
8856;DHT22;4464;50.882;4.730;2022-07-30T12:56:25;37.20;59.10
8856;DHT22;4464;50.882;4.730;2022-07-30T12:58:53;37.90;58.40
8856;DHT22;4464;50.882;4.730;2022-07-30T13:01:38;39.60;57.40
8856;DHT22;4464;50.882;4.730;2022-07-30T13:04:05;40.30;55.60
8856;DHT22;4464;50.882;4.730;2022-07-30T13:06:34;34.50;60.40
8856;DHT22;4464;50.882;4.730;2022-07-30T13:09:00;32.80;64.30
8856;DHT22;4464;50.882;4.730;2022-07-30T13:11:37;32.80;64.20
8856;DHT22;4464;50.882;4.730;2022-07-30T13:14:03;33.40;63.90
8856;DHT22;4464;50.882;4.730;2022-07-30T13:16:34;34.20;63.70
8856;DHT22;4464;50.882;4.730;2022-07-30T13:19:06;33.30;63.10
8856;DHT22;4464;50.882;4.730;2022-07-30T13:21:34;33.20;64.30
8856;DHT22;4464;50.882;4.730;2022-07-30T13:24:01;33.20;63.50
8856;DHT22;4464;50.882;4.730;2022-07-30T13:26:31;33.40;63.80
8856;DHT22;4464;50.882;4.730;2022-07-30T13:29:00;34.10;63.00
8856;DHT22;4464;50.882;4.730;2022-07-30T13:31:25;34.00;62.40
8856;DHT22;4464;50.882;4.730;2022-07-30T13:33:52;33.70;62.00
8856;DHT22;4464;50.882;4.730;2022-07-30T13:36:19;33.60;62.60
8856;DHT22;4464;50.882;4.730;2022-07-30T13:38:45;33.30;62.80
8856;DHT22;4464;50.882;4.730;2022-07-30T13:41:11;32.10;65.30
8856;DHT22;4464;50.882;4.730;2022-07-30T13:43:37;30.80;67.50
8856;DHT22;4464;50.882;4.730;2022-07-30T13:46:03;30.20;69.10
8856;DHT22;4464;50.882;4.730;2022-07-30T13:48:31;30.10;69.40
8856;DHT22;4464;50.882;4.730;2022-07-30T13:50:59;29.90;69.90
8856;DHT22;4464;50.882;4.730;2022-07-30T13:53:28;29.40;70.70
8856;DHT22;4464;50.882;4.730;2022-07-30T13:55:54;29.20;71.40
8856;DHT22;4464;50.882;4.730;2022-07-30T13:58:21;29.40;71.50
8856;DHT22;4464;50.882;4.730;2022-07-30T14:00:47;29.90;71.10
8856;DHT22;4464;50.882;4.730;2022-07-30T14:03:14;29.90;71.10
8856;DHT22;4464;50.882;4.730;2022-07-30T14:05:40;29.60;71.70
8856;DHT22;4464;50.882;4.730;2022-07-30T14:08:07;29.60;71.40
8856;DHT22;4464;50.882;4.730;2022-07-30T14:10:34;29.80;71.50
8856;DHT22;4464;50.882;4.730;2022-07-30T14:13:05;29.30;72.60
8856;DHT22;4464;50.882;4.730;2022-07-30T14:15:31;29.60;71.90
8856;DHT22;4464;50.882;4.730;2022-07-30T14:17:57;30.30;71.10
8856;DHT22;4464;50.882;4.730;2022-07-30T14:20:24;30.90;69.80
8856;DHT22;4464;50.882;4.730;2022-07-30T14:22:50;31.10;68.30
8856;DHT22;4464;50.882;4.730;2022-07-30T14:25:18;30.90;68.80
8856;DHT22;4464;50.882;4.730;2022-07-30T14:27:44;31.30;69.20
8856;DHT22;4464;50.882;4.730;2022-07-30T14:30:10;32.00;67.10
8856;DHT22;4464;50.882;4.730;2022-07-30T14:32:37;32.10;67.40
8856;DHT22;4464;50.882;4.730;2022-07-30T14:35:07;33.30;65.60
8856;DHT22;4464;50.882;4.730;2022-07-30T14:37:34;33.90;64.30
8856;DHT22;4464;50.882;4.730;2022-07-30T14:40:02;35.10;62.10
8856;DHT22;4464;50.882;4.730;2022-07-30T14:42:28;36.00;60.70
8856;DHT22;4464;50.882;4.730;2022-07-30T14:44:54;36.70;59.00
8856;DHT22;4464;50.882;4.730;2022-07-30T14:47:20;34.80;59.70
8856;DHT22;4464;50.882;4.730;2022-07-30T14:49:47;32.90;62.30
8856;DHT22;4464;50.882;4.730;2022-07-30T14:52:13;32.60;63.10
8856;DHT22;4464;50.882;4.730;2022-07-30T14:54:39;32.30;62.80
8856;DHT22;4464;50.882;4.730;2022-07-30T14:57:06;30.70;65.90
8856;DHT22;4464;50.882;4.730;2022-07-30T14:59:36;29.90;67.10
8856;DHT22;4464;50.882;4.730;2022-07-30T15:02:02;30.30;66.80
8856;DHT22;4464;50.882;4.730;2022-07-30T15:04:28;30.70;67.10
8856;DHT22;4464;50.882;4.730;2022-07-30T15:06:55;31.00;66.60
8856;DHT22;4464;50.882;4.730;2022-07-30T15:09:21;30.90;66.30
8856;DHT22;4464;50.882;4.730;2022-07-30T15:11:47;30.60;66.50
8856;DHT22;4464;50.882;4.730;2022-07-30T15:14:16;30.60;66.50
8856;DHT22;4464;50.882;4.730;2022-07-30T15:16:44;30.20;67.70
8856;DHT22;4464;50.882;4.730;2022-07-30T15:19:12;29.80;68.90
8856;DHT22;4464;50.882;4.730;2022-07-30T15:21:43;29.30;69.80
8856;DHT22;4464;50.882;4.730;2022-07-30T15:24:09;29.20;70.10
8856;DHT22;4464;50.882;4.730;2022-07-30T15:26:40;29.60;69.90
8856;DHT22;4464;50.882;4.730;2022-07-30T15:29:06;29.70;69.20
8856;DHT22;4464;50.882;4.730;2022-07-30T15:31:35;30.40;68.20
8856;DHT22;4464;50.882;4.730;2022-07-30T15:34:03;30.00;69.70
8856;DHT22;4464;50.882;4.730;2022-07-30T15:36:38;29.50;70.00
8856;DHT22;4464;50.882;4.730;2022-07-30T15:39:04;29.90;69.40
8856;DHT22;4464;50.882;4.730;2022-07-30T15:41:33;30.30;67.70
8856;DHT22;4464;50.882;4.730;2022-07-30T15:44:01;29.80;68.60
8856;DHT22;4464;50.882;4.730;2022-07-30T15:46:27;29.60;68.60
8856;DHT22;4464;50.882;4.730;2022-07-30T15:48:52;29.80;68.60
8856;DHT22;4464;50.882;4.730;2022-07-30T15:51:21;29.80;68.90
8856;DHT22;4464;50.882;4.730;2022-07-30T15:53:47;30.10;68.20
8856;DHT22;4464;50.882;4.730;2022-07-30T15:56:13;30.20;68.40
8856;DHT22;4464;50.882;4.730;2022-07-30T15:58:42;30.00;68.50
8856;DHT22;4464;50.882;4.730;2022-07-30T16:01:07;30.10;68.90
8856;DHT22;4464;50.882;4.730;2022-07-30T16:03:34;29.80;68.90
8856;DHT22;4464;50.882;4.730;2022-07-30T16:06:05;29.70;69.00
8856;DHT22;4464;50.882;4.730;2022-07-30T16:08:33;29.60;68.00
8856;DHT22;4464;50.882;4.730;2022-07-30T16:10:59;29.30;68.80
8856;DHT22;4464;50.882;4.730;2022-07-30T16:13:29;29.40;69.40
8856;DHT22;4464;50.882;4.730;2022-07-30T16:15:57;29.40;70.00
8856;DHT22;4464;50.882;4.730;2022-07-30T16:18:23;29.40;69.20
8856;DHT22;4464;50.882;4.730;2022-07-30T16:20:51;29.60;69.20
8856;DHT22;4464;50.882;4.730;2022-07-30T16:23:18;29.50;69.60
8856;DHT22;4464;50.882;4.730;2022-07-30T16:25:46;29.10;70.10
8856;DHT22;4464;50.882;4.730;2022-07-30T16:28:11;29.10;70.30
8856;DHT22;4464;50.882;4.730;2022-07-30T16:30:39;28.80;71.40
8856;DHT22;4464;50.882;4.730;2022-07-30T16:33:06;28.60;71.00
8856;DHT22;4464;50.882;4.730;2022-07-30T16:35:31;28.50;71.30
8856;DHT22;4464;50.882;4.730;2022-07-30T16:38:00;28.50;71.20
8856;DHT22;4464;50.882;4.730;2022-07-30T16:40:30;28.80;70.50
8856;DHT22;4464;50.882;4.730;2022-07-30T16:42:56;29.00;69.50
8856;DHT22;4464;50.882;4.730;2022-07-30T16:45:24;29.10;69.50